Mr Chip — WDC3048 — position and weather

sailwx.info

Track history (hours):
 
Tides and Currents Weather Stations Pressure Air Temp Water Temp Dewpoint Dewpoint Depression Visibility Wind Speed Wind Dir Waves Ship Positions

Mr Chip

Owner: CENTRAL BOAT RENTALS, BERWICK, LA. More information available from US FCC via Universal Licensing System and Coast Guard Vessel Documentation Center.

Last reported at 2018-May-04 16:50 UTC. Time now 2018-Jul-21 18:53 UTC.
Position N 29°34' W 090°57'.
Warning: this ship's position is months out of date.

Length 14 m; draft 2.3 m.

Type: Tug. MMSI: 367001990.

Date/timePositionNaut miles runAvg speedWind from/ knotsBaromVisibWave heightAir tempDewpointWater temp
2018-May-04 16:50N 29°34' W 090°57'3 5.3
2018-May-04 16:17N 29°33' W 090°54'2 5.2
2018-May-04 15:58N 29°32' W 090°52'2 5.2
2018-May-04 15:30N 29°32' W 090°49'2 5.0
2018-May-04 15:00N 29°32' W 090°46'2 4.6
2018-May-04 14:30N 29°34' W 090°45'1 2.8
2018-May-04 14:00N 29°34' W 090°43'0 1.0
2018-May-04 13:30N 29°34' W 090°43'1 1.5
2018-May-04 12:58N 29°33' W 090°42'0 0.0
2018-May-04 12:28N 29°33' W 090°42'0 0.7
2018-May-04 11:57N 29°33' W 090°42'2 4.7
2018-May-04 11:30N 29°31' W 090°43'10 0.4
2018-May-03 10:12N 29°21' W 090°44'1 6.7
2018-May-03 10:00N 29°22' W 090°44'3 6.7
2018-May-03 09:30N 29°26' W 090°43'3 6.9
2018-May-03 09:00N 29°29' W 090°43'3 6.9
2018-May-03 08:31N 29°32' W 090°42'2 3.8
2018-May-03 08:00N 29°34' W 090°44'3 6.3
2018-May-03 07:31N 29°32' W 090°47'  
Track history (hours):
 
Tides and Currents Weather Stations Pressure Air Temp Water Temp Dewpoint Dewpoint Depression Visibility Wind Speed Wind Dir Waves Ship Positions

Mr Chip

Owner: CENTRAL BOAT RENTALS, BERWICK, LA. More information available from US FCC via Universal Licensing System and Coast Guard Vessel Documentation Center.

Last reported at 2018-May-04 16:50 UTC. Time now 2018-Jul-21 18:53 UTC.
Position N 29°34' W 090°57'.
Warning: this ship's position is months out of date.

Length 14 m; draft 2.3 m.

Type: Tug. MMSI: 367001990.

Date/timePositionNaut miles runAvg speedWind from/ knotsBaromVisibWave heightAir tempDewpointWater temp
2018-May-04 16:50N 29°34' W 090°57'3 5.3
2018-May-04 16:17N 29°33' W 090°54'2 5.2
2018-May-04 15:58N 29°32' W 090°52'2 5.2
2018-May-04 15:30N 29°32' W 090°49'2 5.0
2018-May-04 15:00N 29°32' W 090°46'2 4.6
2018-May-04 14:30N 29°34' W 090°45'1 2.8
2018-May-04 14:00N 29°34' W 090°43'0 1.0
2018-May-04 13:30N 29°34' W 090°43'1 1.5
2018-May-04 12:58N 29°33' W 090°42'0 0.0
2018-May-04 12:28N 29°33' W 090°42'0 0.7
2018-May-04 11:57N 29°33' W 090°42'2 4.7
2018-May-04 11:30N 29°31' W 090°43'10 0.4
2018-May-03 10:12N 29°21' W 090°44'1 6.7
2018-May-03 10:00N 29°22' W 090°44'3 6.7
2018-May-03 09:30N 29°26' W 090°43'3 6.9
2018-May-03 09:00N 29°29' W 090°43'3 6.9
2018-May-03 08:31N 29°32' W 090°42'2 3.8
2018-May-03 08:00N 29°34' W 090°44'3 6.3
2018-May-03 07:31N 29°32' W 090°47'  

Dump ship's entire track history